Osteen, Florida
Current Conditions -  °F | °C
As of 6:53 AM on Friday 24 Oct 2014 (Local Time) from KSFB Reporting Station
Scattered Clouds Scattered Clouds  
Wind Chill: 64°   Ceiling: Unl
Heat Index: 64°   Visibility: 10mi
Dew Point: 56°   Wind: 8mph
Humidity: 75%   Direction: 360°N
Pressure: 29.97"   Gusts: NA
Location:  28.85°N, 81.16°W
Report Text: KSFB 241053Z 36007KT 10SM SCT042 18/13 A2997 RMK AO2 SLP148 T01780133
Loading
Personal Weather Stations






























Interactive Weather Map
Tropical Storm Tracking
New forecast layout! Learn more

10-Day Weather Forecast

Advertisements
Track Severe Weather on mobile